Terminal Aerodrome Forecast
Issued by NWS Portland, OR

Home | Current Version | Previous Version | Text Only | Print | Product List | Glossary On
Versions: 1 2 3 4 5 6 7 8 9 10 11 12 13 14 15 16 17 18 19 20 21 22 23 24 25 26 27 28 29 30 31 32 33 34 35 36 37 38 39 40 41 42 43
000
FTUS46 KPQR 222011 AAA
TAFEUG
TAF AMD
KEUG 222011Z 2220/2318 21007KT P6SM -SHRA BKN025 BKN060
     FM222200 21007KT P6SM -SHRA SCT025 BKN050
     FM230900 VRB03KT 2SM -SHRA BR SCT004 SCT025 BKN050
     FM231500 18006KT P6SM -SHRA SCT025 BKN050=

USA.gov is the U.S. government's official web portal to all federal, state and local government web resources and services.